Time;durP1;ratioP1;P1;durP2;ratioP2;P2;SDS_P1;SDS_P2;PMS_P1;PMS_P2;Temp;Humidity;BMP_temperature;BMP_pressure;BME280_temperature;BME280_humidity;BME280_pressure;Samples;Min_cycle;Max_cycle;Signal;HPM_P1;HPM_P2
2022/11/14 00:02:41;;;;;;;26.60;20.08;;;;;;;9.26;86.58;100922.03;4982119;28;20057;-65
2022/11/14 00:05:27;;;;;;;31.05;21.75;;;;;;;9.06;86.81;100911.38;4981905;28;20066;-65
2022/11/14 00:08:38;;;;;;;28.00;20.15;;;;;;;9.30;86.87;100903.00;4996865;28;20486;-68
2022/11/14 00:11:24;;;;;;;26.85;19.70;;;;;;;9.12;86.67;100903.88;4997368;28;20050;-66
2022/11/14 00:15:04;;;;;;;;;;;;;;;;;;;;;
2022/11/14 00:19:09;;;;;;;33.85;22.67;;;;;;;9.16;88.31;100891.97;4929290;29;20056;-69
2022/11/14 00:23:22;;;;;;;33.88;23.23;;;;;;;9.13;87.58;100895.34;4845841;29;20056;-68
2022/11/14 00:31:08;;;;;;;;;;;;;;;;;;;;;
2022/11/14 00:34:33;;;;;;;31.52;22.85;;;;;;;9.37;87.27;100885.03;4887479;29;20052;-66
2022/11/14 00:37:18;;;;;;;32.70;23.40;;;;;;;9.35;87.50;100887.25;4880585;29;20112;-66
2022/11/14 00:40:05;;;;;;;32.22;23.52;;;;;;;9.38;87.27;100875.66;4897578;29;20056;-71
2022/11/14 00:42:50;;;;;;;34.65;23.75;;;;;;;9.38;88.13;100878.41;4897187;29;20057;-66
2022/11/14 00:45:36;;;;;;;33.13;23.02;;;;;;;9.40;87.86;100878.09;4905258;29;20078;-67
2022/11/14 00:48:22;;;;;;;34.55;24.42;;;;;;;9.22;88.93;100871.56;4953352;29;20537;-66
2022/11/14 00:51:08;;;;;;;34.97;24.67;;;;;;;9.22;88.32;100867.97;4952880;29;20204;-68
2022/11/14 00:53:54;;;;;;;33.97;23.85;;;;;;;9.23;88.98;100862.19;4947643;28;20063;-66
2022/11/14 00:56:40;;;;;;;34.50;24.92;;;;;;;9.12;88.03;100863.47;4995777;28;20038;-67
2022/11/14 00:59:25;;;;;;;34.50;24.83;;;;;;;9.23;88.30;100873.19;4980673;28;20054;-66
2022/11/14 01:02:11;;;;;;;36.25;26.10;;;;;;;9.52;87.58;100870.22;4996286;28;20050;-66
2022/11/14 01:04:57;;;;;;;45.63;29.02;;;;;;;9.39;87.15;100862.72;5007168;28;20050;-67
2022/11/14 01:07:43;;;;;;;45.20;31.25;;;;;;;9.10;87.99;100863.75;4997069;28;20051;-68
2022/11/14 01:10:28;;;;;;;47.00;31.27;;;;;;;8.84;89.59;100864.47;5004824;28;20069;-68
2022/11/14 01:13:15;;;;;;;46.05;30.73;;;;;;;8.78;90.62;100862.91;4980505;28;20042;-67
2022/11/14 01:16:01;;;;;;;48.20;30.58;;;;;;;8.76;90.98;100859.66;4995440;28;20501;-67
2022/11/14 01:18:47;;;;;;;47.25;31.52;;;;;;;8.76;91.05;100854.16;4986181;28;20065;-68
2022/11/14 01:21:33;;;;;;;46.20;31.08;;;;;;;8.86;90.56;100849.31;4991681;28;20046;-66
2022/11/14 01:24:19;;;;;;;43.65;29.10;;;;;;;8.74;90.64;100851.72;5006582;28;20061;-67
2022/11/14 01:27:05;;;;;;;43.60;28.00;;;;;;;8.93;90.71;100858.00;5008489;28;20060;-68
2022/11/14 01:29:51;;;;;;;38.83;26.65;;;;;;;8.90;90.36;100853.13;4994092;28;20050;-66
2022/11/14 01:32:37;;;;;;;38.30;25.60;;;;;;;9.07;89.83;100852.56;4997353;28;20050;-66
2022/11/14 01:35:23;;;;;;;40.00;27.02;;;;;;;9.34;87.77;100840.84;4997678;28;20054;-66
2022/11/14 01:38:13;;;;;;;39.53;25.50;;;;;;;9.33;87.86;100833.72;4982321;28;20062;-66
2022/11/14 01:40:59;;;;;;;37.28;25.83;;;;;;;9.15;88.04;100834.56;4999187;28;20042;-66
2022/11/14 01:43:45;;;;;;;44.58;28.13;;;;;;;9.11;88.88;100834.38;4993837;28;20057;-67
2022/11/14 01:46:36;;;;;;;44.80;28.88;;;;;;;9.19;89.12;100827.38;4993979;28;20050;-67
2022/11/14 01:49:26;;;;;;;46.20;29.35;;;;;;;9.25;89.15;100826.16;4978575;28;20058;-67
2022/11/14 01:52:17;;;;;;;48.53;30.83;;;;;;;9.27;88.97;100816.50;4989889;28;20054;-66
2022/11/14 01:55:08;;;;;;;39.47;26.45;;;;;;;9.14;87.57;100822.75;5004906;28;20379;-66
2022/11/14 01:57:54;;;;;;;39.28;26.00;;;;;;;9.36;88.14;100814.69;4995531;28;20130;-66
2022/11/14 02:00:40;;;;;;;38.08;25.13;;;;;;;9.21;87.58;100812.19;4981547;28;20062;-67
2022/11/14 02:03:26;;;;;;;37.92;25.02;;;;;;;9.26;87.74;100816.81;4983399;28;20046;-66
2022/11/14 02:06:16;;;;;;;35.00;22.75;;;;;;;9.09;87.55;100811.88;4990630;28;20057;-67
2022/11/14 02:09:04;;;;;;;35.15;22.67;;;;;;;9.15;88.17;100818.09;5008725;28;20382;-66
2022/11/14 02:11:51;;;;;;;32.92;22.90;;;;;;;8.97;88.32;100817.03;4980367;28;20418;-66
2022/11/14 02:14:36;;;;;;;35.08;22.05;;;;;;;9.10;89.09;100827.22;4994763;28;20042;-66
2022/11/14 02:17:24;;;;;;;34.45;22.77;;;;;;;9.18;88.30;100826.56;4979179;28;20050;-66
2022/11/14 02:20:30;;;;;;;33.33;22.73;;;;;;;9.13;88.29;100830.19;4988983;28;20047;-66
2022/11/14 02:23:25;;;;;;;36.15;23.33;;;;;;;9.04;88.17;100818.28;4976443;28;20050;-66
2022/11/14 02:26:11;;;;;;;35.70;23.17;;;;;;;8.91;89.55;100826.44;4986630;28;20046;-68
2022/11/14 02:28:57;;;;;;;32.22;22.33;;;;;;;9.04;89.45;100822.94;5002342;28;20062;-66
2022/11/14 02:31:42;;;;;;;32.17;21.45;;;;;;;8.99;89.11;100815.63;4960115;28;20364;-66
2022/11/14 02:34:28;;;;;;;31.42;20.60;;;;;;;9.08;88.60;100816.53;4981253;28;20054;-66
2022/11/14 02:37:15;;;;;;;30.40;21.27;;;;;;;9.12;88.35;100803.00;4999740;28;20520;-68
2022/11/14 02:40:00;;;;;;;29.98;21.13;;;;;;;9.13;87.88;100803.84;4999601;28;20054;-67
2022/11/14 02:42:46;;;;;;;32.70;21.88;;;;;;;9.06;88.68;100791.31;4981033;28;20066;-67
2022/11/14 02:45:32;;;;;;;33.10;21.95;;;;;;;9.09;88.54;100793.44;5008948;28;20647;-67
2022/11/14 02:48:18;;;;;;;33.35;21.08;;;;;;;9.22;88.77;100788.28;4997478;28;20066;-68
2022/11/14 02:51:03;;;;;;;32.17;21.25;;;;;;;9.13;88.62;100786.22;4993482;28;20034;-66
2022/11/14 02:53:49;;;;;;;29.85;20.77;;;;;;;9.12;88.43;100785.72;4996699;28;20038;-67
2022/11/14 02:56:35;;;;;;;32.70;21.40;;;;;;;8.98;88.18;100785.66;4990279;28;20058;-66
2022/11/14 02:59:21;;;;;;;33.35;21.85;;;;;;;8.91;88.39;100790.72;4998753;28;20045;-66
2022/11/14 03:02:07;;;;;;;34.28;22.08;;;;;;;8.72;89.75;100779.78;5015354;28;20041;-66
2022/11/14 03:04:53;;;;;;;32.83;21.98;;;;;;;9.00;89.65;100764.22;5015493;28;20416;-66
2022/11/14 03:07:39;;;;;;;34.92;21.80;;;;;;;8.89;89.60;100766.31;5011475;28;20378;-66
2022/11/14 03:10:25;;;;;;;32.17;21.02;;;;;;;9.02;88.98;100757.31;5014099;28;20378;-55
2022/11/14 03:13:11;;;;;;;32.88;20.30;;;;;;;9.09;88.86;100754.16;4992044;28;20042;-55
2022/11/14 03:15:56;;;;;;;30.10;20.58;;;;;;;9.08;88.54;100756.09;5016418;28;20058;-55
2022/11/14 03:18:42;;;;;;;29.63;20.10;;;;;;;9.25;87.82;100751.94;5009460;28;20054;-57
2022/11/14 03:21:28;;;;;;;28.60;18.85;;;;;;;9.05;88.35;100759.44;5004705;28;20060;-56
2022/11/14 03:24:14;;;;;;;26.50;18.33;;;;;;;9.22;88.02;100752.56;5013426;28;20038;-58
2022/11/14 03:27:00;;;;;;;28.02;18.88;;;;;;;9.14;87.47;100754.06;5013037;28;20058;-58
2022/11/14 03:29:49;;;;;;;26.15;17.75;;;;;;;9.20;87.06;100752.03;5003664;28;20065;-59
2022/11/14 03:32:35;;;;;;;27.02;18.10;;;;;;;9.20;86.95;100757.53;4999090;28;20042;-57
2022/11/14 03:35:20;;;;;;;25.65;17.80;;;;;;;8.97;87.37;100762.06;5001599;28;20042;-59
2022/11/14 03:38:06;;;;;;;26.40;16.98;;;;;;;8.94;88.00;100762.69;4999511;28;20054;-58
2022/11/14 03:40:52;;;;;;;24.48;17.33;;;;;;;8.83;87.92;100758.47;5006357;28;20038;-58
2022/11/14 03:43:37;;;;;;;27.00;18.27;;;;;;;8.53;89.56;100767.19;4997027;28;20046;-59
2022/11/14 03:46:23;;;;;;;30.05;18.52;;;;;;;8.65;89.99;100759.31;5006938;28;20398;-60
2022/11/14 03:49:09;;;;;;;27.50;18.40;;;;;;;8.89;89.77;100752.59;4992107;28;20046;-58
2022/11/14 03:51:55;;;;;;;26.40;17.20;;;;;;;8.99;88.58;100743.38;5004371;28;20045;-60
2022/11/14 03:54:41;;;;;;;29.98;18.35;;;;;;;8.93;88.97;100739.06;5002319;28;20054;-57
2022/11/14 03:57:27;;;;;;;28.02;18.65;;;;;;;8.90;89.13;100735.00;4978882;28;20061;-55
2022/11/14 04:00:12;;;;;;;26.90;17.25;;;;;;;9.00;88.94;100737.56;4973159;28;20167;-56
2022/11/14 04:02:58;;;;;;;28.90;19.00;;;;;;;8.62;89.77;100738.78;4987249;28;20606;-58
2022/11/14 04:05:44;;;;;;;28.38;19.23;;;;;;;8.92;89.95;100735.53;4978349;28;20050;-57
2022/11/14 04:08:30;;;;;;;26.02;18.23;;;;;;;9.15;88.59;100730.97;4987347;28;20506;-57
2022/11/14 04:11:18;;;;;;;26.70;16.88;;;;;;;9.17;88.18;100727.94;4982612;28;20054;-58
2022/11/14 04:14:04;;;;;;;27.45;18.25;;;;;;;8.94;88.79;100735.22;4987140;28;20046;-58
2022/11/14 04:16:49;;;;;;;26.58;18.13;;;;;;;9.18;88.72;100741.34;5004823;28;20151;-58
2022/11/14 04:19:35;;;;;;;26.90;17.73;;;;;;;9.03;88.70;100745.19;4982103;28;20391;-57
2022/11/14 04:22:22;;;;;;;25.35;17.23;;;;;;;9.18;88.25;100751.53;4962097;28;20047;-59
2022/11/14 04:25:08;;;;;;;25.65;16.65;;;;;;;9.34;88.30;100748.19;4978168;28;20038;-58
2022/11/14 04:27:54;;;;;;;25.77;17.63;;;;;;;9.06;88.33;100757.53;4977175;28;20057;-58
2022/11/14 04:30:40;;;;;;;29.20;18.70;;;;;;;8.84;89.49;100760.91;4996322;28;20046;-57
2022/11/14 04:33:26;;;;;;;27.10;17.88;;;;;;;9.02;89.40;100753.75;4982085;28;20046;-59
2022/11/14 04:36:12;;;;;;;27.27;18.10;;;;;;;9.08;88.77;100758.03;4994765;28;20089;-59
2022/11/14 04:38:58;;;;;;;26.95;17.85;;;;;;;9.09;88.77;100754.97;4993614;28;20061;-58
2022/11/14 04:41:44;;;;;;;28.00;16.88;;;;;;;8.91;89.75;100752.28;4979523;28;20046;-59
2022/11/14 04:44:30;;;;;;;26.73;18.10;;;;;;;9.08;89.17;100747.84;4984902;28;20053;-60
2022/11/14 04:47:15;;;;;;;28.38;17.13;;;;;;;8.79;90.12;100739.03;4969725;28;20054;-57
2022/11/14 04:50:02;;;;;;;25.73;17.02;;;;;;;8.73;90.30;100729.28;4983705;28;20495;-58
2022/11/14 04:52:52;;;;;;;27.23;17.08;;;;;;;9.02;90.51;100737.25;4981095;28;20054;-56
2022/11/14 04:55:38;;;;;;;27.83;17.58;;;;;;;8.82;90.58;100740.38;5000348;28;20591;-59
2022/11/14 04:58:24;;;;;;;25.55;16.88;;;;;;;9.05;90.15;100726.47;4997431;28;20058;-61
2022/11/14 05:01:10;;;;;;;24.60;16.00;;;;;;;8.89;90.27;100725.13;5011286;28;20494;-58
2022/11/14 05:03:56;;;;;;;22.60;15.45;;;;;;;9.09;89.76;100724.75;5013834;28;20411;-57
2022/11/14 05:06:43;;;;;;;23.13;15.18;;;;;;;9.02;88.60;100715.28;5000361;28;20545;-57
2022/11/14 05:09:28;;;;;;;21.45;14.48;;;;;;;8.89;89.33;100711.38;4997281;28;20066;-58
2022/11/14 05:12:14;;;;;;;23.73;15.88;;;;;;;8.92;89.67;100712.72;5015323;28;20081;-59
2022/11/14 05:15:00;;;;;;;25.45;16.15;;;;;;;8.99;89.00;100716.72;5015367;28;20050;-59
2022/11/14 05:17:46;;;;;;;24.17;16.15;;;;;;;8.85;89.44;100706.81;5015332;28;20540;-58
2022/11/14 05:20:32;;;;;;;26.15;17.02;;;;;;;8.70;91.11;100710.63;5010468;28;20042;-58
2022/11/14 05:23:19;;;;;;;24.08;16.23;;;;;;;8.87;90.99;100708.13;5012278;28;20069;-58
2022/11/14 05:26:07;;;;;;;25.30;16.45;;;;;;;8.63;92.12;100701.16;5010337;28;20490;-58
2022/11/14 05:28:53;;;;;;;24.77;16.25;;;;;;;8.72;91.66;100702.91;5009261;28;20050;-57
2022/11/14 05:31:39;;;;;;;25.27;16.08;;;;;;;8.56;91.57;100698.00;5009989;28;20046;-59
2022/11/14 05:34:25;;;;;;;26.48;17.20;;;;;;;8.76;92.10;100706.69;5010189;28;20061;-56
2022/11/14 05:37:11;;;;;;;27.98;16.73;;;;;;;8.81;91.22;100692.88;5008528;28;20046;-58
2022/11/14 05:39:57;;;;;;;23.42;15.40;;;;;;;8.85;90.32;100687.59;5011155;28;20054;-57
2022/11/14 05:42:43;;;;;;;26.83;16.50;;;;;;;8.56;92.04;100678.78;5010572;28;20050;-60
2022/11/14 05:45:29;;;;;;;27.80;15.68;;;;;;;8.53;92.62;100679.34;5011394;28;20053;-59
2022/11/14 05:48:15;;;;;;;28.02;17.33;;;;;;;8.81;91.57;100684.63;5010597;28;20045;-57
2022/11/14 05:51:03;;;;;;;25.05;16.17;;;;;;;8.79;91.58;100686.84;5009413;28;20054;-58
2022/11/14 05:53:49;;;;;;;29.20;16.90;;;;;;;8.87;91.38;100679.84;4995153;28;20072;-57
2022/11/14 05:56:34;;;;;;;26.15;15.82;;;;;;;8.94;91.00;100672.03;5009063;28;20046;-59
2022/11/14 05:59:20;;;;;;;25.85;16.92;;;;;;;9.11;90.32;100661.25;5010903;28;20057;-57
2022/11/14 06:02:06;;;;;;;24.20;16.48;;;;;;;9.13;89.31;100660.94;4995451;28;20042;-58
2022/11/14 06:04:52;;;;;;;24.65;16.73;;;;;;;8.86;90.43;100670.78;4996699;28;20650;-57
2022/11/14 06:07:38;;;;;;;27.55;16.73;;;;;;;8.64;92.17;100669.84;5017874;28;20049;-58
2022/11/14 06:10:25;;;;;;;31.35;18.05;;;;;;;8.85;91.95;100669.19;5018463;28;20045;-54
2022/11/14 06:13:10;;;;;;;26.58;16.85;;;;;;;8.63;92.49;100671.75;5019042;28;20046;-55
2022/11/14 06:16:07;;;;;;;26.45;16.38;;;;;;;8.82;91.98;100661.53;5017151;28;20045;-57
2022/11/14 06:18:53;;;;;;;29.10;18.05;;;;;;;8.73;92.34;100668.03;5003767;28;20062;-60
2022/11/14 06:21:38;;;;;;;27.33;17.75;;;;;;;8.93;91.85;100662.16;5018095;28;20050;-60
2022/11/14 06:24:24;;;;;;;27.55;16.40;;;;;;;8.80;92.13;100668.44;5018047;28;20057;-56
2022/11/14 06:27:24;;;;;;;23.95;15.63;;;;;;;8.80;91.75;100666.50;5017678;28;20159;-59
2022/11/14 06:30:10;;;;;;;24.38;15.30;;;;;;;8.79;91.84;100664.88;5005521;28;20050;-58
2022/11/14 06:34:00;;;;;;;24.17;14.73;;;;;;;8.78;91.99;100671.50;5017688;28;20058;-63
2022/11/14 06:36:46;;;;;;;27.63;15.98;;;;;;;8.71;92.16;100673.84;4992949;28;20390;-60
2022/11/14 06:39:32;;;;;;;29.50;16.05;;;;;;;8.87;91.87;100668.88;4995907;28;20046;-58
2022/11/14 06:42:18;;;;;;;23.80;14.85;;;;;;;8.87;91.01;100679.84;5012801;28;20045;-59
2022/11/14 06:45:04;;;;;;;23.40;14.77;;;;;;;8.88;90.88;100681.47;5012829;28;20046;-58
2022/11/14 06:47:49;;;;;;;32.40;21.52;;;;;;;8.86;90.58;100673.53;5014060;28;20038;-58
2022/11/14 06:50:35;;;;;;;36.20;20.25;;;;;;;8.97;90.61;100675.00;5011643;28;20563;-59
2022/11/14 06:53:21;;;;;;;31.80;18.58;;;;;;;9.01;90.75;100675.19;5012508;28;20056;-60
2022/11/14 06:56:10;;;;;;;30.73;16.73;;;;;;;8.81;91.26;100683.81;4999262;28;20047;-60
2022/11/14 06:58:57;;;;;;;29.13;16.85;;;;;;;8.67;92.23;100699.44;4995306;28;20069;-60
2022/11/14 07:01:43;;;;;;;29.02;16.70;;;;;;;8.58;92.72;100707.53;4988865;28;20042;-55
2022/11/14 07:04:30;;;;;;;30.02;16.80;;;;;;;8.69;92.79;100710.94;4997186;28;20042;-58
2022/11/14 07:07:16;;;;;;;25.27;15.48;;;;;;;8.87;92.27;100699.09;5000937;28;20042;-56
2022/11/14 07:10:02;;;;;;;23.27;15.48;;;;;;;8.88;91.56;100698.78;5009522;28;20499;-58
2022/11/14 07:12:48;;;;;;;26.73;17.70;;;;;;;8.79;91.60;100710.75;4992641;28;20046;-59
2022/11/14 07:15:35;;;;;;;24.52;15.55;;;;;;;9.02;91.81;100704.28;4995227;28;20054;-61
2022/11/14 07:18:20;;;;;;;25.17;15.27;;;;;;;8.84;91.98;100702.41;4992329;28;20084;-57
2022/11/14 07:21:06;;;;;;;26.80;14.43;;;;;;;8.73;92.81;100706.47;4992378;28;20038;-56
2022/11/14 07:23:52;;;;;;;24.00;13.90;;;;;;;8.88;92.20;100709.75;4996895;28;20046;-58
2022/11/14 07:26:38;;;;;;;26.02;14.00;;;;;;;9.09;91.25;100712.94;4987118;28;20048;-59
2022/11/14 07:29:24;;;;;;;23.02;14.65;;;;;;;8.94;91.04;100714.03;4997362;28;20055;-60
2022/11/14 07:32:09;;;;;;;31.27;15.57;;;;;;;9.36;90.34;100703.91;4967009;28;20533;-59
2022/11/14 07:34:56;;;;;;;29.02;15.38;;;;;;;9.06;89.85;100703.41;5002144;28;20054;-59
2022/11/14 07:37:47;;;;;;;28.23;14.70;;;;;;;9.10;90.31;100700.81;4977609;28;20537;-59
2022/11/14 07:40:33;;;;;;;26.98;13.85;;;;;;;9.25;89.96;100713.47;4986058;28;20058;-59
2022/11/14 07:43:19;;;;;;;29.13;15.82;;;;;;;9.41;89.20;100706.56;4995786;28;20062;-59
2022/11/14 07:46:16;;;;;;;27.98;15.57;;;;;;;9.35;88.59;100700.34;4996518;28;20046;-59
2022/11/14 07:49:02;;;;;;;26.35;15.32;;;;;;;9.56;88.14;100703.47;4996803;28;21317;-56
2022/11/14 07:51:47;;;;;;;24.65;15.00;;;;;;;9.74;86.64;100694.31;4988975;28;20526;-57
2022/11/14 07:54:33;;;;;;;24.83;15.45;;;;;;;9.55;86.76;100699.94;5002205;28;20062;-59
2022/11/14 07:57:19;;;;;;;29.38;19.30;;;;;;;9.59;86.67;100709.19;4975161;28;20046;-67
2022/11/14 08:00:09;;;;;;;27.70;17.80;;;;;;;9.37;87.82;100705.53;4990050;28;20054;-66
2022/11/14 08:02:55;;;;;;;21.38;12.45;;;;;;;9.45;87.30;100699.34;4977259;28;20049;-66
2022/11/14 08:05:41;;;;;;;18.40;10.57;;;;;;;9.05;87.54;100703.66;4986829;28;20053;-59
2022/11/14 08:08:27;;;;;;;19.23;11.98;;;;;;;9.00;89.21;100699.09;4973747;28;20490;-60
2022/11/14 08:11:14;;;;;;;16.67;10.88;;;;;;;9.35;88.07;100696.75;4974264;28;20054;-59
2022/11/14 08:14:19;;;;;;;16.75;11.48;;;;;;;9.40;87.19;100693.91;4989792;28;20054;-65
2022/11/14 08:17:05;;;;;;;16.75;11.13;;;;;;;9.50;86.94;100702.75;4988734;28;20050;-66
2022/11/14 08:19:51;;;;;;;16.77;10.65;;;;;;;9.34;87.58;100690.47;4992111;28;20046;-66
2022/11/14 08:22:37;;;;;;;17.70;11.15;;;;;;;9.17;88.18;100697.69;4980950;28;20042;-65
2022/11/14 08:25:24;;;;;;;16.92;10.90;;;;;;;9.24;88.31;100701.66;4981033;28;20054;-66
2022/11/14 08:28:09;;;;;;;19.33;10.50;;;;;;;9.40;87.63;100702.97;4981137;28;21710;-65
2022/11/14 08:31:00;;;;;;;16.20;10.55;;;;;;;9.56;87.06;100700.72;4977599;28;20058;-66
2022/11/14 08:33:49;;;;;;;21.33;10.82;;;;;;;9.68;86.35;100692.78;4985591;28;20054;-66
2022/11/14 08:36:35;;;;;;;16.08;10.57;;;;;;;9.83;85.22;100696.00;4980864;28;23506;-65
2022/11/14 08:39:21;;;;;;;18.17;10.75;;;;;;;9.45;86.33;100696.59;4988201;28;20050;-67
2022/11/14 08:42:07;;;;;;;17.27;11.10;;;;;;;9.17;87.53;100697.69;4986761;28;20038;-67
2022/11/14 08:44:53;;;;;;;16.63;10.38;;;;;;;9.28;88.16;100699.09;4973248;28;20038;-65
2022/11/14 08:47:38;;;;;;;17.30;10.93;;;;;;;9.16;88.78;100696.88;4977541;28;20049;-66
2022/11/14 08:50:24;;;;;;;20.23;12.57;;;;;;;9.07;89.03;100702.25;4965034;28;20065;-67
2022/11/14 08:53:10;;;;;;;16.17;10.52;;;;;;;9.34;89.24;100695.16;4984845;28;20069;-67
2022/11/14 08:56:03;;;;;;;17.45;10.55;;;;;;;9.39;88.91;100698.63;5007945;28;20407;-67
2022/11/14 08:58:53;;;;;;;30.63;21.08;;;;;;;9.36;88.78;100710.22;5008621;28;20057;-68
2022/11/14 09:01:39;;;;;;;24.10;13.30;;;;;;;9.79;87.82;100717.00;5007273;28;20058;-70
2022/11/14 09:04:25;;;;;;;16.13;9.48;;;;;;;10.64;83.90;100713.38;4985397;28;20073;-69
2022/11/14 09:07:11;;;;;;;16.73;9.80;;;;;;;10.17;83.66;100703.78;5005261;28;20069;-69
2022/11/14 09:09:57;;;;;;;18.80;9.68;;;;;;;10.11;83.87;100710.56;4998397;28;20053;-69
2022/11/14 09:12:55;;;;;;;14.13;9.90;;;;;;;9.97;83.77;100707.00;5010910;28;20064;-71
2022/11/14 09:15:43;;;;;;;29.25;10.05;;;;;;;9.88;85.06;100711.59;4996305;28;20047;-69
2022/11/14 09:18:29;;;;;;;15.27;10.10;;;;;;;9.85;85.44;100703.97;5008439;28;20057;-69
2022/11/14 09:21:16;;;;;;;16.00;10.00;;;;;;;9.96;84.86;100710.84;5006087;28;20046;-69
2022/11/14 09:24:01;;;;;;;16.48;9.65;;;;;;;9.81;85.16;100703.78;5010933;28;20057;-69
2022/11/14 09:26:50;;;;;;;17.98;10.55;;;;;;;9.66;86.32;100703.28;5015125;28;20046;-69
2022/11/14 09:29:42;;;;;;;15.88;10.15;;;;;;;9.61;87.08;100700.63;5015389;28;20042;-70
2022/11/14 09:32:31;;;;;;;22.02;11.65;;;;;;;9.32;87.53;100702.88;5011961;28;20517;-70
2022/11/14 09:35:37;;;;;;;;;;;;;;;9.43;87.26;100701.56;4992086;28;20056;-61
2022/11/14 09:38:23;;;;;;;17.48;10.52;;;;;;;9.55;86.64;100705.44;4996441;28;20384;-61
2022/11/14 09:41:25;;;;;;;15.77;10.13;;;;;;;9.56;86.94;100689.72;5007761;28;20061;-60
2022/11/14 09:44:37;;;;;;;17.80;10.90;;;;;;;9.60;86.46;100696.25;5010673;28;20050;-61
2022/11/14 09:47:45;;;;;;;17.98;11.65;;;;;;;9.34;87.18;100693.22;5001531;28;20145;-60
2022/11/14 09:50:39;;;;;;;19.67;11.77;;;;;;;9.55;87.24;100699.94;4991994;28;20058;-61
2022/11/14 09:53:31;;;;;;;19.60;11.10;;;;;;;9.70;86.60;100705.09;4996902;28;20057;-63
2022/11/14 09:56:25;;;;;;;18.73;11.77;;;;;;;9.61;86.86;100697.88;4984384;28;20062;-62
2022/11/14 09:59:13;;;;;;;18.30;11.82;;;;;;;9.59;86.23;100692.69;4985696;28;20073;-61
2022/11/14 10:02:15;;;;;;;19.10;12.55;;;;;;;9.86;86.18;100692.66;4980289;28;20057;-62
2022/11/14 10:06:00;;;;;;;16.75;11.45;;;;;;;10.06;85.39;100710.63;4984885;28;20054;-63
2022/11/14 10:09:20;;;;;;;21.55;13.05;;;;;;;9.91;85.34;100713.72;4948952;28;20066;-62
2022/11/14 10:12:35;;;;;;;21.27;12.35;;;;;;;9.98;85.36;100706.69;4938836;28;20660;-61
2022/11/14 10:15:30;;;;;;;19.63;13.30;;;;;;;9.87;85.51;100704.44;4974142;28;20062;-62
2022/11/14 10:18:32;;;;;;;24.58;15.25;;;;;;;9.94;85.67;100708.41;4972837;28;20062;-61
2022/11/14 10:21:25;;;;;;;22.23;14.98;;;;;;;10.33;84.44;100693.22;4975012;28;20050;-62
2022/11/14 10:24:43;;;;;;;21.13;12.95;;;;;;;10.28;83.75;100694.19;4975379;28;20077;-61
2022/11/14 10:27:35;;;;;;;19.75;13.25;;;;;;;10.14;83.85;100690.66;4997965;28;20053;-61
2022/11/14 10:30:21;;;;;;;21.38;13.82;;;;;;;10.42;84.01;100680.34;4945098;28;20069;-62
2022/11/14 10:33:41;;;;;;;23.73;15.93;;;;;;;10.33;83.12;100683.03;4973661;28;20046;-60
2022/11/14 10:37:00;;;;;;;24.35;13.77;;;;;;;10.14;83.87;100682.41;4989922;28;20058;-59
2022/11/14 10:39:49;;;;;;;17.17;12.60;;;;;;;10.02;84.69;100671.09;4983686;28;20047;-61
2022/11/14 10:42:37;;;;;;;22.55;12.65;;;;;;;10.27;84.71;100669.72;4990924;28;20054;-61
2022/11/14 10:45:32;;;;;;;23.33;12.93;;;;;;;10.32;83.22;100667.63;4975444;28;20050;-61
2022/11/14 10:48:38;;;;;;;18.63;12.43;;;;;;;10.51;82.89;100665.53;4994107;28;20378;-62
2022/11/14 10:51:43;;;;;;;22.27;13.68;;;;;;;10.48;82.17;100659.84;4995554;28;20057;-62
2022/11/14 10:54:45;;;;;;;24.20;13.25;;;;;;;10.58;82.75;100652.13;4972091;28;20429;-61
2022/11/14 10:57:31;;;;;;;22.20;13.70;;;;;;;10.52;82.36;100658.06;5012275;28;20065;-58
2022/11/14 11:00:21;;;;;;;22.25;13.90;;;;;;;10.45;83.19;100652.19;5005423;28;20045;-60
2022/11/14 11:03:07;;;;;;;19.98;13.65;;;;;;;10.71;82.45;100653.97;5015308;28;20057;-67
2022/11/14 11:05:59;;;;;;;22.88;12.95;;;;;;;10.75;81.94;100654.97;5016714;28;20053;-62
2022/11/14 11:11:57;;;;;;;18.77;12.48;;;;;;;10.59;82.23;100647.41;5003472;28;20061;-60
2022/11/14 11:14:44;;;;;;;19.85;13.65;;;;;;;10.46;82.94;100643.59;5011995;28;20054;-61
2022/11/14 11:17:30;;;;;;;21.02;12.82;;;;;;;10.47;83.31;100642.50;5015984;28;20057;-61
2022/11/14 11:20:37;;;;;;;22.65;14.85;;;;;;;10.42;83.22;100628.03;4983495;28;20066;-64
2022/11/14 11:23:25;;;;;;;30.33;18.23;;;;;;;10.54;83.42;100634.59;5005943;28;20062;-58
2022/11/14 11:26:23;;;;;;;25.20;16.15;;;;;;;10.48;84.07;100635.06;5010605;28;20052;-61
2022/11/14 11:29:08;;;;;;;18.75;13.25;;;;;;;10.68;83.22;100626.25;5010353;28;20421;-62
2022/11/14 11:31:59;;;;;;;19.27;13.27;;;;;;;10.46;83.38;100627.06;5013997;28;20060;-62
2022/11/14 11:34:45;;;;;;;21.67;14.48;;;;;;;10.45;84.20;100621.88;5008116;28;20057;-62
2022/11/14 11:37:53;;;;;;;26.52;14.40;;;;;;;10.50;84.68;100611.56;5000525;28;20061;-63
2022/11/14 11:40:42;;;;;;;22.65;14.65;;;;;;;10.55;84.79;100605.91;5009970;28;20054;-61
2022/11/14 11:43:37;;;;;;;24.27;15.57;;;;;;;10.72;84.29;100589.47;4981291;28;20057;-61
2022/11/14 11:46:34;;;;;;;23.33;14.77;;;;;;;11.03;83.46;100586.69;4995328;28;20503;-62
2022/11/14 11:49:26;;;;;;;20.88;14.48;;;;;;;11.08;83.08;100586.53;5010264;28;20064;-63
2022/11/14 11:52:59;;;;;;;20.73;14.70;;;;;;;11.05;82.70;100592.69;5011102;28;20049;-61
2022/11/14 11:55:50;;;;;;;22.67;15.30;;;;;;;11.09;83.17;100588.97;5005791;28;20516;-63
2022/11/14 11:58:57;;;;;;;26.65;17.15;;;;;;;11.33;82.56;100575.56;4989952;28;20052;-60
2022/11/14 12:01:43;;;;;;;44.63;22.60;;;;;;;11.60;81.47;100570.88;5015898;28;20088;-61
2022/11/14 12:04:29;;;;;;;41.35;23.50;;;;;;;11.35;81.65;100570.53;4993740;28;20064;-63
2022/11/14 12:07:18;;;;;;;47.70;27.00;;;;;;;11.26;81.98;100566.16;5010760;28;20045;-61
2022/11/14 12:10:18;;;;;;;56.22;23.52;;;;;;;11.09;83.30;100558.66;5008211;28;20053;-63
2022/11/14 12:13:23;;;;;;;106.60;36.60;;;;;;;11.16;83.26;100558.16;5011503;28;20049;-62
2022/11/14 12:16:27;;;;;;;51.42;28.80;;;;;;;11.27;83.87;100552.06;5013591;28;20046;-62
2022/11/14 12:19:54;;;;;;;42.20;25.95;;;;;;;11.48;82.61;100543.13;4999190;28;20045;-60
2022/11/14 12:23:18;;;;;;;35.80;21.25;;;;;;;11.44;83.39;100537.47;4986724;28;20062;-61
2022/11/14 12:26:12;;;;;;;24.25;17.23;;;;;;;11.45;82.99;100541.84;5002484;28;20556;-60
2022/11/14 12:29:31;;;;;;;29.10;16.90;;;;;;;11.60;82.57;100533.09;5008222;28;20049;-61
2022/11/14 12:32:38;;;;;;;29.05;19.92;;;;;;;11.70;82.54;100540.28;5007253;28;20057;-61
2022/11/14 12:35:28;;;;;;;26.17;19.38;;;;;;;11.65;82.58;100530.19;5019139;28;20056;-60
2022/11/14 12:38:18;;;;;;;24.20;18.48;;;;;;;11.66;83.14;100531.84;4995007;28;20041;-61
2022/11/14 12:41:06;;;;;;;28.08;19.17;;;;;;;11.74;82.58;100522.72;5012870;28;20056;-59
2022/11/14 12:43:52;;;;;;;27.60;17.80;;;;;;;11.76;82.92;100525.97;4985399;28;20056;-60
2022/11/14 12:47:03;;;;;;;23.35;18.27;;;;;;;11.83;82.61;100518.03;4998914;28;20140;-60
2022/11/14 12:49:52;;;;;;;24.30;17.33;;;;;;;11.91;82.51;100516.38;5009276;28;20053;-57
2022/11/14 12:52:52;;;;;;;27.08;18.02;;;;;;;11.70;83.24;100515.44;4998043;28;20064;-59
2022/11/14 12:55:44;;;;;;;26.90;18.65;;;;;;;11.60;84.18;100518.47;4997955;28;20053;-60
2022/11/14 12:58:54;;;;;;;22.25;17.73;;;;;;;11.76;84.08;100509.44;5014987;28;20049;-55
2022/11/14 13:01:43;;;;;;;;;;;;;;;11.76;83.97;100516.88;5010787;28;20045;-59
2022/11/14 13:04:41;;;;;;;26.95;17.45;;;;;;;11.78;84.29;100507.16;5010367;28;20292;-59
2022/11/14 13:07:54;;;;;;;26.80;17.17;;;;;;;11.75;84.78;100504.25;4994246;28;20060;-56
2022/11/14 13:10:40;;;;;;;25.98;17.15;;;;;;;12.01;84.42;100499.47;5009087;28;21916;-59
2022/11/14 13:22:49;;;;;;;24.27;17.90;;;;;;;12.55;83.32;100492.31;4988914;28;20489;-61
2022/11/14 13:25:35;;;;;;;24.92;18.20;;;;;;;12.74;82.77;100487.19;5005483;28;20674;-58
2022/11/14 13:28:36;;;;;;;25.10;17.52;;;;;;;12.89;82.08;100484.66;5012288;28;20057;-60